3XA4 weather

Palmview Police Department
Palmview, Texas, United States

Public forecast

Using degrees Fahrenheit for public forecast. Weather courtesy of forecast.io.

Closest aviation weather report (METAR) to Palmview Police Department

Closest report is Mc Allen Miller International Airport, 8.1 nm (15.0 km) ESE. Retrieved 2019/10/17 06:53 UTC (21 minutes ago):

KMFE 170653Z AUTO 33011G17KT 10SM -RA BKN019 OVC029 17/12 A3005 RMK AO2 RAB32 SLP174 P0000 T01670122

Closest aviation forecast (TAF) to Palmview Police Department

Closest forecast is Mc Allen Miller International Airport, 8.1 nm (15.0 km) ESE. Retrieved 2019/10/17 06:42 UTC (32 minutes ago):

TAF KMFE 170539Z 1706/1806 34011KT P6SM OVC035 FM171700 35008KT P6SM OVC040